sensor_id;sensor_type;location;lat;lon;timestamp;temperature;humidity
59075;DHT22;44860;53.020;6.738;2023-05-19T00:01:14;9.40;99.90
59075;DHT22;44860;53.020;6.738;2023-05-19T00:03:52;9.30;99.90
59075;DHT22;44860;53.020;6.738;2023-05-19T00:06:22;9.30;99.90
59075;DHT22;44860;53.020;6.738;2023-05-19T00:08:51;9.30;99.90
59075;DHT22;44860;53.020;6.738;2023-05-19T00:11:19;9.30;99.90
59075;DHT22;44860;53.020;6.738;2023-05-19T00:13:47;9.20;99.90
59075;DHT22;44860;53.020;6.738;2023-05-19T00:16:14;9.20;99.90
59075;DHT22;44860;53.020;6.738;2023-05-19T00:18:40;9.20;99.90
59075;DHT22;44860;53.020;6.738;2023-05-19T00:21:06;9.10;99.90
59075;DHT22;44860;53.020;6.738;2023-05-19T00:23:32;9.10;99.90
59075;DHT22;44860;53.020;6.738;2023-05-19T00:25:58;9.00;99.90
59075;DHT22;44860;53.020;6.738;2023-05-19T00:28:23;9.10;99.90
59075;DHT22;44860;53.020;6.738;2023-05-19T00:30:50;9.00;99.90
59075;DHT22;44860;53.020;6.738;2023-05-19T00:33:16;9.00;99.90
59075;DHT22;44860;53.020;6.738;2023-05-19T00:35:41;9.00;99.90
59075;DHT22;44860;53.020;6.738;2023-05-19T00:38:07;8.90;99.90
59075;DHT22;44860;53.020;6.738;2023-05-19T00:40:34;8.90;99.90
59075;DHT22;44860;53.020;6.738;2023-05-19T00:43:01;9.00;99.90
59075;DHT22;44860;53.020;6.738;2023-05-19T00:45:30;8.90;99.90
59075;DHT22;44860;53.020;6.738;2023-05-19T00:47:56;8.90;99.90
59075;DHT22;44860;53.020;6.738;2023-05-19T00:50:22;8.90;99.90
59075;DHT22;44860;53.020;6.738;2023-05-19T00:52:53;8.80;99.90
59075;DHT22;44860;53.020;6.738;2023-05-19T00:55:25;8.80;99.90
59075;DHT22;44860;53.020;6.738;2023-05-19T00:57:52;8.80;99.90
59075;DHT22;44860;53.020;6.738;2023-05-19T01:00:18;8.80;99.90
59075;DHT22;44860;53.020;6.738;2023-05-19T01:02:44;8.70;99.90
59075;DHT22;44860;53.020;6.738;2023-05-19T01:05:11;8.70;99.90
59075;DHT22;44860;53.020;6.738;2023-05-19T01:07:37;8.70;99.90
59075;DHT22;44860;53.020;6.738;2023-05-19T01:10:03;8.70;99.90
59075;DHT22;44860;53.020;6.738;2023-05-19T01:12:29;8.60;99.90
59075;DHT22;44860;53.020;6.738;2023-05-19T01:14:56;8.60;99.90
59075;DHT22;44860;53.020;6.738;2023-05-19T01:19:59;8.60;99.90
59075;DHT22;44860;53.020;6.738;2023-05-19T01:25:42;8.50;99.90
59075;DHT22;44860;53.020;6.738;2023-05-19T01:28:19;8.50;99.90
59075;DHT22;44860;53.020;6.738;2023-05-19T01:30:50;8.40;99.90
59075;DHT22;44860;53.020;6.738;2023-05-19T01:33:21;8.40;99.90
59075;DHT22;44860;53.020;6.738;2023-05-19T01:35:48;8.40;99.90
59075;DHT22;44860;53.020;6.738;2023-05-19T01:38:16;8.30;99.90
59075;DHT22;44860;53.020;6.738;2023-05-19T01:40:44;8.30;99.90
59075;DHT22;44860;53.020;6.738;2023-05-19T01:43:18;8.30;99.90
59075;DHT22;44860;53.020;6.738;2023-05-19T01:45:45;8.30;99.90
59075;DHT22;44860;53.020;6.738;2023-05-19T01:48:12;8.30;99.90
59075;DHT22;44860;53.020;6.738;2023-05-19T01:50:39;8.30;99.90
59075;DHT22;44860;53.020;6.738;2023-05-19T01:53:05;8.30;99.90
59075;DHT22;44860;53.020;6.738;2023-05-19T01:55:31;8.30;99.90
59075;DHT22;44860;53.020;6.738;2023-05-19T02:00:47;8.30;99.90
59075;DHT22;44860;53.020;6.738;2023-05-19T02:11:41;8.20;99.90
59075;DHT22;44860;53.020;6.738;2023-05-19T02:14:19;8.20;99.90
59075;DHT22;44860;53.020;6.738;2023-05-19T02:16:48;8.20;99.90
59075;DHT22;44860;53.020;6.738;2023-05-19T02:19:29;8.20;99.90
59075;DHT22;44860;53.020;6.738;2023-05-19T02:21:55;8.20;99.90
59075;DHT22;44860;53.020;6.738;2023-05-19T02:24:21;8.20;99.90
59075;DHT22;44860;53.020;6.738;2023-05-19T02:26:48;8.20;99.90
59075;DHT22;44860;53.020;6.738;2023-05-19T02:29:14;8.20;99.90
59075;DHT22;44860;53.020;6.738;2023-05-19T02:31:39;8.20;99.90
59075;DHT22;44860;53.020;6.738;2023-05-19T02:34:05;8.20;99.90
59075;DHT22;44860;53.020;6.738;2023-05-19T02:36:33;8.20;99.90
59075;DHT22;44860;53.020;6.738;2023-05-19T02:39:00;8.20;99.90
59075;DHT22;44860;53.020;6.738;2023-05-19T02:41:29;8.20;99.90
59075;DHT22;44860;53.020;6.738;2023-05-19T02:43:55;8.20;99.90
59075;DHT22;44860;53.020;6.738;2023-05-19T02:46:23;8.20;99.90
59075;DHT22;44860;53.020;6.738;2023-05-19T02:48:50;8.10;99.90
59075;DHT22;44860;53.020;6.738;2023-05-19T02:51:17;8.10;99.90
59075;DHT22;44860;53.020;6.738;2023-05-19T02:53:42;8.10;99.90
59075;DHT22;44860;53.020;6.738;2023-05-19T02:56:08;8.00;99.90
59075;DHT22;44860;53.020;6.738;2023-05-19T02:58:34;8.00;99.90
59075;DHT22;44860;53.020;6.738;2023-05-19T03:00:59;8.00;99.90
59075;DHT22;44860;53.020;6.738;2023-05-19T03:03:25;8.00;99.90
59075;DHT22;44860;53.020;6.738;2023-05-19T03:05:51;7.90;99.90
59075;DHT22;44860;53.020;6.738;2023-05-19T03:08:18;7.90;99.90
59075;DHT22;44860;53.020;6.738;2023-05-19T03:10:47;7.80;99.90
59075;DHT22;44860;53.020;6.738;2023-05-19T03:13:13;7.80;99.90
59075;DHT22;44860;53.020;6.738;2023-05-19T03:15:38;7.70;99.90
59075;DHT22;44860;53.020;6.738;2023-05-19T03:18:07;7.70;99.90
59075;DHT22;44860;53.020;6.738;2023-05-19T03:20:33;7.70;99.90
59075;DHT22;44860;53.020;6.738;2023-05-19T03:22:58;7.70;99.90
59075;DHT22;44860;53.020;6.738;2023-05-19T03:25:24;7.60;99.90
59075;DHT22;44860;53.020;6.738;2023-05-19T03:27:50;7.60;99.90
59075;DHT22;44860;53.020;6.738;2023-05-19T03:30:16;7.60;99.90
59075;DHT22;44860;53.020;6.738;2023-05-19T03:32:41;7.60;99.90
59075;DHT22;44860;53.020;6.738;2023-05-19T03:35:07;7.70;99.90
59075;DHT22;44860;53.020;6.738;2023-05-19T03:37:33;7.70;99.90
59075;DHT22;44860;53.020;6.738;2023-05-19T03:40:01;7.70;99.90
59075;DHT22;44860;53.020;6.738;2023-05-19T03:42:28;7.70;99.90
59075;DHT22;44860;53.020;6.738;2023-05-19T03:44:54;7.70;99.90
59075;DHT22;44860;53.020;6.738;2023-05-19T03:47:20;7.70;99.90
59075;DHT22;44860;53.020;6.738;2023-05-19T03:49:45;7.70;99.90
59075;DHT22;44860;53.020;6.738;2023-05-19T03:52:11;7.70;99.90
59075;DHT22;44860;53.020;6.738;2023-05-19T03:54:37;7.70;99.90
59075;DHT22;44860;53.020;6.738;2023-05-19T03:57:04;7.70;99.90
59075;DHT22;44860;53.020;6.738;2023-05-19T03:59:30;7.70;99.90
59075;DHT22;44860;53.020;6.738;2023-05-19T04:01:56;7.70;99.90
59075;DHT22;44860;53.020;6.738;2023-05-19T04:04:22;7.70;99.90
59075;DHT22;44860;53.020;6.738;2023-05-19T04:06:48;7.70;99.90
59075;DHT22;44860;53.020;6.738;2023-05-19T04:09:16;7.70;99.90
59075;DHT22;44860;53.020;6.738;2023-05-19T04:11:43;7.70;99.90
59075;DHT22;44860;53.020;6.738;2023-05-19T04:14:10;7.60;99.90
59075;DHT22;44860;53.020;6.738;2023-05-19T04:16:39;7.70;99.90
59075;DHT22;44860;53.020;6.738;2023-05-19T04:19:06;7.70;99.90
59075;DHT22;44860;53.020;6.738;2023-05-19T04:21:34;7.70;99.90
59075;DHT22;44860;53.020;6.738;2023-05-19T04:24:00;7.70;99.90
59075;DHT22;44860;53.020;6.738;2023-05-19T04:26:26;7.70;99.90
59075;DHT22;44860;53.020;6.738;2023-05-19T04:28:55;7.70;99.90
59075;DHT22;44860;53.020;6.738;2023-05-19T04:31:21;7.80;99.90
59075;DHT22;44860;53.020;6.738;2023-05-19T04:33:47;7.80;99.90
59075;DHT22;44860;53.020;6.738;2023-05-19T04:36:14;7.80;99.90
59075;DHT22;44860;53.020;6.738;2023-05-19T04:38:42;7.80;99.90
59075;DHT22;44860;53.020;6.738;2023-05-19T04:41:07;7.90;99.90
59075;DHT22;44860;53.020;6.738;2023-05-19T04:43:37;8.00;99.90
59075;DHT22;44860;53.020;6.738;2023-05-19T04:46:15;8.00;99.90
59075;DHT22;44860;53.020;6.738;2023-05-19T04:48:40;8.00;99.90
59075;DHT22;44860;53.020;6.738;2023-05-19T04:51:07;8.00;99.90
59075;DHT22;44860;53.020;6.738;2023-05-19T04:53:33;8.10;99.90
59075;DHT22;44860;53.020;6.738;2023-05-19T04:56:00;8.10;99.90
59075;DHT22;44860;53.020;6.738;2023-05-19T04:58:26;8.20;99.90
59075;DHT22;44860;53.020;6.738;2023-05-19T05:00:53;8.20;99.90
59075;DHT22;44860;53.020;6.738;2023-05-19T05:03:21;8.20;99.90
59075;DHT22;44860;53.020;6.738;2023-05-19T05:05:49;8.20;99.90
59075;DHT22;44860;53.020;6.738;2023-05-19T05:08:15;8.30;99.90
59075;DHT22;44860;53.020;6.738;2023-05-19T05:10:51;8.30;99.90
59075;DHT22;44860;53.020;6.738;2023-05-19T05:13:21;8.30;99.90
59075;DHT22;44860;53.020;6.738;2023-05-19T05:15:47;8.40;99.90
59075;DHT22;44860;53.020;6.738;2023-05-19T05:18:14;8.40;99.90
59075;DHT22;44860;53.020;6.738;2023-05-19T05:20:43;8.40;99.90
59075;DHT22;44860;53.020;6.738;2023-05-19T05:23:12;8.50;99.90
59075;DHT22;44860;53.020;6.738;2023-05-19T05:25:41;8.50;99.90
59075;DHT22;44860;53.020;6.738;2023-05-19T05:28:11;8.60;99.90
59075;DHT22;44860;53.020;6.738;2023-05-19T05:30:37;8.60;99.90
59075;DHT22;44860;53.020;6.738;2023-05-19T05:33:06;8.60;99.90
59075;DHT22;44860;53.020;6.738;2023-05-19T05:35:32;8.70;99.90
59075;DHT22;44860;53.020;6.738;2023-05-19T05:37:58;8.70;99.90
59075;DHT22;44860;53.020;6.738;2023-05-19T05:40:27;8.80;99.90
59075;DHT22;44860;53.020;6.738;2023-05-19T05:42:52;8.80;99.90
59075;DHT22;44860;53.020;6.738;2023-05-19T05:45:21;8.90;99.90
59075;DHT22;44860;53.020;6.738;2023-05-19T05:47:47;8.90;99.90
59075;DHT22;44860;53.020;6.738;2023-05-19T05:50:14;8.90;99.90
59075;DHT22;44860;53.020;6.738;2023-05-19T05:52:40;9.00;99.90
59075;DHT22;44860;53.020;6.738;2023-05-19T05:55:07;9.10;99.90
59075;DHT22;44860;53.020;6.738;2023-05-19T05:57:33;9.10;99.90
59075;DHT22;44860;53.020;6.738;2023-05-19T06:00:01;9.20;99.90
59075;DHT22;44860;53.020;6.738;2023-05-19T06:02:30;9.30;99.90
59075;DHT22;44860;53.020;6.738;2023-05-19T06:04:55;9.30;99.90
59075;DHT22;44860;53.020;6.738;2023-05-19T06:07:21;9.40;99.90
59075;DHT22;44860;53.020;6.738;2023-05-19T06:09:48;9.40;99.90
59075;DHT22;44860;53.020;6.738;2023-05-19T06:12:14;9.50;99.90
59075;DHT22;44860;53.020;6.738;2023-05-19T06:14:40;9.60;99.90
59075;DHT22;44860;53.020;6.738;2023-05-19T06:17:06;9.60;99.90
59075;DHT22;44860;53.020;6.738;2023-05-19T06:19:31;9.70;99.90
59075;DHT22;44860;53.020;6.738;2023-05-19T06:21:57;9.80;99.90
59075;DHT22;44860;53.020;6.738;2023-05-19T06:24:22;9.90;99.90
59075;DHT22;44860;53.020;6.738;2023-05-19T06:26:51;9.90;99.90
59075;DHT22;44860;53.020;6.738;2023-05-19T06:29:17;10.00;99.90
59075;DHT22;44860;53.020;6.738;2023-05-19T06:31:42;10.10;99.90
59075;DHT22;44860;53.020;6.738;2023-05-19T06:34:08;10.20;99.90
59075;DHT22;44860;53.020;6.738;2023-05-19T06:36:36;10.30;99.90
59075;DHT22;44860;53.020;6.738;2023-05-19T06:39:05;10.30;99.90
59075;DHT22;44860;53.020;6.738;2023-05-19T06:41:31;10.50;99.90
59075;DHT22;44860;53.020;6.738;2023-05-19T06:43:56;10.50;99.90
59075;DHT22;44860;53.020;6.738;2023-05-19T06:46:22;10.60;99.90
59075;DHT22;44860;53.020;6.738;2023-05-19T06:48:47;10.70;99.90
59075;DHT22;44860;53.020;6.738;2023-05-19T06:51:13;10.70;99.90
59075;DHT22;44860;53.020;6.738;2023-05-19T06:53:41;10.90;99.90
59075;DHT22;44860;53.020;6.738;2023-05-19T06:56:06;10.90;99.90
59075;DHT22;44860;53.020;6.738;2023-05-19T06:58:32;11.00;99.90
59075;DHT22;44860;53.020;6.738;2023-05-19T07:00:58;11.10;99.90
59075;DHT22;44860;53.020;6.738;2023-05-19T07:03:23;11.20;99.90
59075;DHT22;44860;53.020;6.738;2023-05-19T07:05:49;11.30;99.90
59075;DHT22;44860;53.020;6.738;2023-05-19T07:08:18;11.40;99.90
59075;DHT22;44860;53.020;6.738;2023-05-19T07:10:43;11.50;99.90
59075;DHT22;44860;53.020;6.738;2023-05-19T07:13:09;11.60;99.90
59075;DHT22;44860;53.020;6.738;2023-05-19T07:15:34;11.70;99.90
59075;DHT22;44860;53.020;6.738;2023-05-19T07:18:00;11.70;99.90
59075;DHT22;44860;53.020;6.738;2023-05-19T07:20:26;11.90;99.90
59075;DHT22;44860;53.020;6.738;2023-05-19T07:22:51;12.00;99.90
59075;DHT22;44860;53.020;6.738;2023-05-19T07:25:17;12.10;99.90
59075;DHT22;44860;53.020;6.738;2023-05-19T07:27:43;12.10;99.90
59075;DHT22;44860;53.020;6.738;2023-05-19T07:30:10;12.20;99.90
59075;DHT22;44860;53.020;6.738;2023-05-19T07:32:36;12.30;99.90
59075;DHT22;44860;53.020;6.738;2023-05-19T07:35:02;12.40;99.90
59075;DHT22;44860;53.020;6.738;2023-05-19T07:37:32;12.50;99.90
59075;DHT22;44860;53.020;6.738;2023-05-19T07:39:57;12.50;99.90
59075;DHT22;44860;53.020;6.738;2023-05-19T07:42:23;12.60;99.90
59075;DHT22;44860;53.020;6.738;2023-05-19T07:44:48;12.70;99.90
59075;DHT22;44860;53.020;6.738;2023-05-19T07:47:14;12.80;99.90
59075;DHT22;44860;53.020;6.738;2023-05-19T07:49:40;12.80;99.90
59075;DHT22;44860;53.020;6.738;2023-05-19T07:52:06;13.00;99.90
59075;DHT22;44860;53.020;6.738;2023-05-19T07:54:31;13.00;99.90
59075;DHT22;44860;53.020;6.738;2023-05-19T07:56:57;13.10;99.90
59075;DHT22;44860;53.020;6.738;2023-05-19T07:59:23;13.20;99.90
59075;DHT22;44860;53.020;6.738;2023-05-19T08:01:48;13.20;99.90
59075;DHT22;44860;53.020;6.738;2023-05-19T08:04:14;13.30;99.90
59075;DHT22;44860;53.020;6.738;2023-05-19T08:06:40;13.40;99.90
59075;DHT22;44860;53.020;6.738;2023-05-19T08:09:10;13.50;99.90
59075;DHT22;44860;53.020;6.738;2023-05-19T08:11:36;13.50;99.90
59075;DHT22;44860;53.020;6.738;2023-05-19T08:14:02;13.60;99.90
59075;DHT22;44860;53.020;6.738;2023-05-19T08:16:28;13.70;99.90
59075;DHT22;44860;53.020;6.738;2023-05-19T08:18:54;13.80;99.90
59075;DHT22;44860;53.020;6.738;2023-05-19T08:21:20;13.80;99.90
59075;DHT22;44860;53.020;6.738;2023-05-19T08:23:46;13.90;99.90
59075;DHT22;44860;53.020;6.738;2023-05-19T08:26:11;14.00;99.90
59075;DHT22;44860;53.020;6.738;2023-05-19T08:28:40;14.00;99.90
59075;DHT22;44860;53.020;6.738;2023-05-19T08:31:06;14.10;99.90
59075;DHT22;44860;53.020;6.738;2023-05-19T08:33:31;14.20;99.90
59075;DHT22;44860;53.020;6.738;2023-05-19T08:35:57;14.30;99.90
59075;DHT22;44860;53.020;6.738;2023-05-19T08:38:24;14.30;99.90
59075;DHT22;44860;53.020;6.738;2023-05-19T08:40:50;14.40;99.60
59075;DHT22;44860;53.020;6.738;2023-05-19T08:43:15;14.50;98.80
59075;DHT22;44860;53.020;6.738;2023-05-19T08:45:43;14.60;97.10
59075;DHT22;44860;53.020;6.738;2023-05-19T08:48:12;14.60;96.50
59075;DHT22;44860;53.020;6.738;2023-05-19T08:50:39;14.70;95.90
59075;DHT22;44860;53.020;6.738;2023-05-19T08:55:57;14.90;93.50
59075;DHT22;44860;53.020;6.738;2023-05-19T08:58:26;15.00;94.70
59075;DHT22;44860;53.020;6.738;2023-05-19T09:00:52;15.00;94.60
59075;DHT22;44860;53.020;6.738;2023-05-19T09:03:20;15.00;94.30
59075;DHT22;44860;53.020;6.738;2023-05-19T09:05:49;15.10;93.80
59075;DHT22;44860;53.020;6.738;2023-05-19T09:08:15;15.20;93.40
59075;DHT22;44860;53.020;6.738;2023-05-19T09:10:41;15.20;92.00
59075;DHT22;44860;53.020;6.738;2023-05-19T09:13:06;15.30;91.00
59075;DHT22;44860;53.020;6.738;2023-05-19T09:15:33;15.40;91.40
59075;DHT22;44860;53.020;6.738;2023-05-19T09:18:09;15.50;90.10
59075;DHT22;44860;53.020;6.738;2023-05-19T09:20:39;15.50;84.80
59075;DHT22;44860;53.020;6.738;2023-05-19T09:23:06;15.60;83.40
59075;DHT22;44860;53.020;6.738;2023-05-19T09:25:32;15.60;82.70
59075;DHT22;44860;53.020;6.738;2023-05-19T09:27:58;15.70;81.20
59075;DHT22;44860;53.020;6.738;2023-05-19T09:30:24;15.70;79.70
59075;DHT22;44860;53.020;6.738;2023-05-19T09:32:50;15.60;78.60
59075;DHT22;44860;53.020;6.738;2023-05-19T09:35:16;15.70;75.00
59075;DHT22;44860;53.020;6.738;2023-05-19T09:37:44;15.80;72.90
59075;DHT22;44860;53.020;6.738;2023-05-19T09:40:13;15.80;70.00
59075;DHT22;44860;53.020;6.738;2023-05-19T09:42:40;16.00;72.00
59075;DHT22;44860;53.020;6.738;2023-05-19T09:45:06;16.10;71.00
59075;DHT22;44860;53.020;6.738;2023-05-19T09:47:37;16.10;69.90
59075;DHT22;44860;53.020;6.738;2023-05-19T09:50:08;16.20;68.10
59075;DHT22;44860;53.020;6.738;2023-05-19T09:52:39;16.20;64.80
59075;DHT22;44860;53.020;6.738;2023-05-19T09:55:11;16.30;66.30
59075;DHT22;44860;53.020;6.738;2023-05-19T09:57:38;16.40;66.10
59075;DHT22;44860;53.020;6.738;2023-05-19T10:00:08;16.50;65.90
59075;DHT22;44860;53.020;6.738;2023-05-19T10:02:43;16.60;66.80
59075;DHT22;44860;53.020;6.738;2023-05-19T10:05:14;16.60;65.70
59075;DHT22;44860;53.020;6.738;2023-05-19T10:07:45;16.70;64.70
59075;DHT22;44860;53.020;6.738;2023-05-19T10:10:13;16.80;65.80
59075;DHT22;44860;53.020;6.738;2023-05-19T10:12:40;16.80;63.00
59075;DHT22;44860;53.020;6.738;2023-05-19T10:15:10;16.80;60.40
59075;DHT22;44860;53.020;6.738;2023-05-19T10:17:41;16.80;61.50
59075;DHT22;44860;53.020;6.738;2023-05-19T10:20:12;16.80;62.40
59075;DHT22;44860;53.020;6.738;2023-05-19T10:22:38;16.90;62.90
59075;DHT22;44860;53.020;6.738;2023-05-19T10:25:05;17.00;63.60
59075;DHT22;44860;53.020;6.738;2023-05-19T10:27:36;17.20;62.60
59075;DHT22;44860;53.020;6.738;2023-05-19T10:30:12;17.20;61.50
59075;DHT22;44860;53.020;6.738;2023-05-19T10:32:40;17.30;63.10
59075;DHT22;44860;53.020;6.738;2023-05-19T10:35:41;17.40;61.80
59075;DHT22;44860;53.020;6.738;2023-05-19T10:46:05;17.50;57.90
59075;DHT22;44860;53.020;6.738;2023-05-19T10:48:34;17.60;58.60
59075;DHT22;44860;53.020;6.738;2023-05-19T10:51:03;17.70;60.00
59075;DHT22;44860;53.020;6.738;2023-05-19T10:53:30;17.70;59.90
59075;DHT22;44860;53.020;6.738;2023-05-19T10:55:57;17.90;58.00
59075;DHT22;44860;53.020;6.738;2023-05-19T10:58:54;17.90;56.70
59075;DHT22;44860;53.020;6.738;2023-05-19T11:01:20;18.00;57.40
59075;DHT22;44860;53.020;6.738;2023-05-19T11:03:55;18.00;56.40
59075;DHT22;44860;53.020;6.738;2023-05-19T11:06:34;18.00;55.60
59075;DHT22;44860;53.020;6.738;2023-05-19T11:09:12;18.10;55.90
59075;DHT22;44860;53.020;6.738;2023-05-19T11:14:10;18.20;54.60
59075;DHT22;44860;53.020;6.738;2023-05-19T11:16:38;18.20;53.70
59075;DHT22;44860;53.020;6.738;2023-05-19T11:19:05;18.20;54.30
59075;DHT22;44860;53.020;6.738;2023-05-19T11:21:47;18.20;54.60
59075;DHT22;44860;53.020;6.738;2023-05-19T11:24:43;18.30;53.70
59075;DHT22;44860;53.020;6.738;2023-05-19T11:29:52;18.50;55.10
59075;DHT22;44860;53.020;6.738;2023-05-19T11:32:26;18.60;53.80
59075;DHT22;44860;53.020;6.738;2023-05-19T11:34:52;18.70;52.00
59075;DHT22;44860;53.020;6.738;2023-05-19T11:37:19;18.70;53.20
59075;DHT22;44860;53.020;6.738;2023-05-19T11:39:45;18.80;52.40
59075;DHT22;44860;53.020;6.738;2023-05-19T11:42:11;18.80;51.50
59075;DHT22;44860;53.020;6.738;2023-05-19T11:44:37;18.90;50.90
59075;DHT22;44860;53.020;6.738;2023-05-19T11:47:06;19.00;50.40
59075;DHT22;44860;53.020;6.738;2023-05-19T11:49:31;19.00;49.70
59075;DHT22;44860;53.020;6.738;2023-05-19T11:51:59;19.00;49.50
59075;DHT22;44860;53.020;6.738;2023-05-19T11:54:31;19.10;49.90
59075;DHT22;44860;53.020;6.738;2023-05-19T11:56:59;19.20;49.50
59075;DHT22;44860;53.020;6.738;2023-05-19T11:59:34;19.30;50.20
59075;DHT22;44860;53.020;6.738;2023-05-19T12:02:15;19.30;48.10
59075;DHT22;44860;53.020;6.738;2023-05-19T12:04:42;19.40;46.20
59075;DHT22;44860;53.020;6.738;2023-05-19T12:07:12;19.40;46.30
59075;DHT22;44860;53.020;6.738;2023-05-19T12:09:39;19.40;47.00
59075;DHT22;44860;53.020;6.738;2023-05-19T12:12:04;19.40;47.10
59075;DHT22;44860;53.020;6.738;2023-05-19T12:14:30;19.40;47.70
59075;DHT22;44860;53.020;6.738;2023-05-19T12:16:56;19.50;46.00
59075;DHT22;44860;53.020;6.738;2023-05-19T12:19:23;19.50;47.50
59075;DHT22;44860;53.020;6.738;2023-05-19T12:21:51;19.60;46.20
59075;DHT22;44860;53.020;6.738;2023-05-19T12:24:18;19.60;46.30
59075;DHT22;44860;53.020;6.738;2023-05-19T12:26:44;19.60;45.60
59075;DHT22;44860;53.020;6.738;2023-05-19T12:29:12;19.60;44.70
59075;DHT22;44860;53.020;6.738;2023-05-19T12:31:37;19.60;44.80
59075;DHT22;44860;53.020;6.738;2023-05-19T12:34:04;19.60;45.30
59075;DHT22;44860;53.020;6.738;2023-05-19T12:36:31;19.60;45.80
59075;DHT22;44860;53.020;6.738;2023-05-19T12:38:56;19.70;46.10
59075;DHT22;44860;53.020;6.738;2023-05-19T12:41:25;19.80;45.10
59075;DHT22;44860;53.020;6.738;2023-05-19T12:43:55;19.80;45.20
59075;DHT22;44860;53.020;6.738;2023-05-19T12:46:20;19.90;46.70
59075;DHT22;44860;53.020;6.738;2023-05-19T12:48:46;20.00;45.70
59075;DHT22;44860;53.020;6.738;2023-05-19T12:51:17;20.10;44.40
59075;DHT22;44860;53.020;6.738;2023-05-19T12:53:43;20.00;43.00
59075;DHT22;44860;53.020;6.738;2023-05-19T12:56:15;20.10;44.60
59075;DHT22;44860;53.020;6.738;2023-05-19T12:58:42;20.10;45.20
59075;DHT22;44860;53.020;6.738;2023-05-19T13:01:15;20.20;45.80
59075;DHT22;44860;53.020;6.738;2023-05-19T13:03:40;20.30;44.20
59075;DHT22;44860;53.020;6.738;2023-05-19T13:06:07;20.40;43.40
59075;DHT22;44860;53.020;6.738;2023-05-19T13:08:33;20.40;41.70
59075;DHT22;44860;53.020;6.738;2023-05-19T13:10:59;20.50;42.40
59075;DHT22;44860;53.020;6.738;2023-05-19T13:13:25;20.40;42.30
59075;DHT22;44860;53.020;6.738;2023-05-19T13:15:51;20.40;41.70
59075;DHT22;44860;53.020;6.738;2023-05-19T13:18:16;20.40;42.00
59075;DHT22;44860;53.020;6.738;2023-05-19T13:20:43;20.40;41.70
59075;DHT22;44860;53.020;6.738;2023-05-19T13:23:10;20.50;40.40
59075;DHT22;44860;53.020;6.738;2023-05-19T13:25:36;20.50;38.40
59075;DHT22;44860;53.020;6.738;2023-05-19T13:28:02;20.50;38.50
59075;DHT22;44860;53.020;6.738;2023-05-19T13:30:34;20.50;38.60
59075;DHT22;44860;53.020;6.738;2023-05-19T13:33:00;20.50;38.30
59075;DHT22;44860;53.020;6.738;2023-05-19T13:35:26;20.50;39.80
59075;DHT22;44860;53.020;6.738;2023-05-19T13:37:52;20.40;38.40
59075;DHT22;44860;53.020;6.738;2023-05-19T13:40:18;20.40;38.60
59075;DHT22;44860;53.020;6.738;2023-05-19T13:42:44;20.50;39.30
59075;DHT22;44860;53.020;6.738;2023-05-19T13:45:09;20.60;39.00
59075;DHT22;44860;53.020;6.738;2023-05-19T13:47:36;20.70;38.40
59075;DHT22;44860;53.020;6.738;2023-05-19T13:50:02;20.70;38.80
59075;DHT22;44860;53.020;6.738;2023-05-19T13:52:29;20.70;37.80
59075;DHT22;44860;53.020;6.738;2023-05-19T13:54:55;20.70;39.00
59075;DHT22;44860;53.020;6.738;2023-05-19T13:57:22;20.60;37.30
59075;DHT22;44860;53.020;6.738;2023-05-19T13:59:48;20.60;36.80
59075;DHT22;44860;53.020;6.738;2023-05-19T14:02:14;20.60;36.50
59075;DHT22;44860;53.020;6.738;2023-05-19T14:04:40;20.50;37.00
59075;DHT22;44860;53.020;6.738;2023-05-19T14:07:06;20.50;36.40
59075;DHT22;44860;53.020;6.738;2023-05-19T14:09:32;20.60;37.30
59075;DHT22;44860;53.020;6.738;2023-05-19T14:11:58;20.70;37.20
59075;DHT22;44860;53.020;6.738;2023-05-19T14:14:24;20.70;36.50
59075;DHT22;44860;53.020;6.738;2023-05-19T14:16:50;20.70;36.10
59075;DHT22;44860;53.020;6.738;2023-05-19T14:19:16;20.70;35.90
59075;DHT22;44860;53.020;6.738;2023-05-19T14:21:41;20.60;36.10
59075;DHT22;44860;53.020;6.738;2023-05-19T14:24:07;20.60;36.40
59075;DHT22;44860;53.020;6.738;2023-05-19T14:26:33;20.60;36.20
59075;DHT22;44860;53.020;6.738;2023-05-19T14:28:58;20.70;35.90
59075;DHT22;44860;53.020;6.738;2023-05-19T14:31:24;20.70;36.40
59075;DHT22;44860;53.020;6.738;2023-05-19T14:33:50;20.80;35.90
59075;DHT22;44860;53.020;6.738;2023-05-19T14:36:16;20.70;35.70
59075;DHT22;44860;53.020;6.738;2023-05-19T14:38:42;20.80;35.70
59075;DHT22;44860;53.020;6.738;2023-05-19T14:41:08;20.70;35.20
59075;DHT22;44860;53.020;6.738;2023-05-19T14:43:33;20.60;35.50
59075;DHT22;44860;53.020;6.738;2023-05-19T14:45:59;20.70;36.10
59075;DHT22;44860;53.020;6.738;2023-05-19T14:48:25;20.70;35.20
59075;DHT22;44860;53.020;6.738;2023-05-19T14:50:51;20.70;34.90
59075;DHT22;44860;53.020;6.738;2023-05-19T14:53:17;20.70;35.60
59075;DHT22;44860;53.020;6.738;2023-05-19T14:55:43;20.70;35.50
59075;DHT22;44860;53.020;6.738;2023-05-19T14:58:08;20.70;35.90
59075;DHT22;44860;53.020;6.738;2023-05-19T15:00:34;20.80;37.20
59075;DHT22;44860;53.020;6.738;2023-05-19T15:03:00;20.90;36.90
59075;DHT22;44860;53.020;6.738;2023-05-19T15:05:25;21.00;36.10
59075;DHT22;44860;53.020;6.738;2023-05-19T15:07:51;21.10;35.30
59075;DHT22;44860;53.020;6.738;2023-05-19T15:10:17;21.20;34.40
59075;DHT22;44860;53.020;6.738;2023-05-19T15:12:46;21.20;33.40
59075;DHT22;44860;53.020;6.738;2023-05-19T15:15:12;21.30;33.40
59075;DHT22;44860;53.020;6.738;2023-05-19T15:17:39;21.30;33.40
59075;DHT22;44860;53.020;6.738;2023-05-19T15:20:06;21.40;33.80
59075;DHT22;44860;53.020;6.738;2023-05-19T15:22:31;21.40;33.40
59075;DHT22;44860;53.020;6.738;2023-05-19T15:24:57;21.40;32.20
59075;DHT22;44860;53.020;6.738;2023-05-19T15:27:23;21.40;32.70
59075;DHT22;44860;53.020;6.738;2023-05-19T15:29:49;21.40;32.70
59075;DHT22;44860;53.020;6.738;2023-05-19T15:32:15;21.30;31.30
59075;DHT22;44860;53.020;6.738;2023-05-19T15:34:40;21.30;30.80
59075;DHT22;44860;53.020;6.738;2023-05-19T15:37:06;21.20;30.90
59075;DHT22;44860;53.020;6.738;2023-05-19T15:39:32;21.20;30.90
59075;DHT22;44860;53.020;6.738;2023-05-19T15:41:58;21.20;31.50
59075;DHT22;44860;53.020;6.738;2023-05-19T15:44:23;21.20;31.90
59075;DHT22;44860;53.020;6.738;2023-05-19T15:46:49;21.20;30.90
59075;DHT22;44860;53.020;6.738;2023-05-19T15:49:15;21.20;31.30
59075;DHT22;44860;53.020;6.738;2023-05-19T15:51:42;21.20;30.70
59075;DHT22;44860;53.020;6.738;2023-05-19T15:54:08;21.20;29.70
59075;DHT22;44860;53.020;6.738;2023-05-19T15:56:34;21.20;29.40
59075;DHT22;44860;53.020;6.738;2023-05-19T15:58:59;21.20;29.70
59075;DHT22;44860;53.020;6.738;2023-05-19T16:01:25;21.30;29.80
59075;DHT22;44860;53.020;6.738;2023-05-19T16:03:51;21.30;30.20
59075;DHT22;44860;53.020;6.738;2023-05-19T16:06:16;21.30;30.40
59075;DHT22;44860;53.020;6.738;2023-05-19T16:08:42;21.40;30.30
59075;DHT22;44860;53.020;6.738;2023-05-19T16:11:08;21.40;30.80